Aviation Digital Data Service (ADDS)

Output produced by METARs form (1638 UTC 01 February 2015)
found at http://www.aviationweather.gov/adds/metars/
 
KBFD 011553Z AUTO 00000KT 3SM HZ SCT028 BKN046 OVC055 M04/M07 A3008 RMK AO2 SLP213 T10441072
KBFD 011510Z AUTO 23003KT 2SM HZ BKN029 OVC036 M05/M08 A3009 RMK AO2 T10501078
KBFD 011453Z AUTO 19004KT 2SM HZ BKN030 OVC039 M05/M08 A3008 RMK AO2 SNE15 SLP215 P0000 60000 T10501078 58004
KBFD 011443Z AUTO 21003KT 2SM BR BKN030 OVC039 M06/M08 A3009 RMK AO2 SNE15 P0000 T10561078
KBFD 011400Z AUTO 20004KT 2 1/2SM -SN BR SCT008 BKN026 OVC034 M06/M08 A3010 RMK AO2 P0000 T10611083
KBFD 011353Z AUTO 20003KT 2SM -SN BR BKN008 BKN019 OVC034 M06/M08 A3009 RMK AO2 SLP221 P0000 T10611083
KBFD 011301Z AUTO 00000KT 1 3/4SM -SN BR OVC006 M06/M08 A3009 RMK AO2 P0000 T10611083
KBFD 011253Z AUTO 00000KT 2SM -SN BR OVC005 M06/M08 A3009 RMK AO2 SNB37 SLP220 P0000 T10611083
KBFD 011248Z AUTO 00000KT 2 1/2SM -SN BR OVC005 M06/M08 A3009 RMK AO2 SNB37 P0000
KBFD 011225Z AUTO 00000KT 5SM BR OVC005 M06/M08 A3009 RMK AO2 T10611083
KBFD 011153Z AUTO 22004KT 3SM BR OVC004 M06/M08 A3010 RMK AO2 SLP221 I1000 I6000 T10611078 11056 21067 53004
KBFD 011107Z AUTO 00000KT 3SM BR OVC004 M06/M07 A3008 RMK AO2 T10561072
KBFD 011053Z AUTO 00000KT 4SM BR OVC005 M06/M07 A3008 RMK AO2 SLP216 T10561072
KBFD 010953Z AUTO 00000KT 4SM BR OVC007 M06/M08 A3008 RMK AO2 SLP217 T10611078
KBFD 010853Z AUTO 26003KT 6SM HZ OVC009 M06/M09 A3008 RMK AO2 SLP216 T10611089 51001
KBFD 010850Z AUTO 26003KT 6SM HZ OVC009 M06/M09 A3008 RMK AO2
KBFD 010805Z AUTO 26003KT 7SM BKN013 OVC019 M06/M09 A3008 RMK AO2 T10611094
KBFD 010753Z AUTO 26003KT 8SM BKN016 OVC021 M06/M09 A3008 RMK AO2 SLP218 T10611094
KBFD 010727Z AUTO 26003KT 8SM SCT014 BKN023 OVC029 M06/M10 A3008 RMK AO2 T10611100
KBFD 010653Z AUTO 27003KT 9SM BKN014 OVC030 M06/M10 A3008 RMK AO2 SLP217 T10611100
KBFD 010635Z AUTO 28004KT 9SM OVC014 M06/M10 A3008 RMK AO2 T10611100
KBFD 010553Z AUTO 27005KT 10SM OVC015 M07/M11 A3009 RMK AO2 SLP221 T10671106 11067 21078 58004
KBFD 010453Z AUTO 28005KT 10SM SCT017 OVC027 M07/M11 A3009 RMK AO2 SLP223 T10671111 410611161
KBFD 010419Z AUTO VRB05KT 10SM OVC029 M07/M11 A3010 RMK AO2 T10721111
KBFD 010353Z AUTO 27004KT 10SM OVC030 M07/M11 A3010 RMK AO2 SLP227 T10721111
KBFD 010253Z AUTO 26005KT 10SM OVC030 M07/M12 A3010 RMK AO2 SLP228 T10721117 58010
KBFD 010204Z AUTO 24005KT 10SM FEW019 BKN034 M08/M12 A3011 RMK AO2 T10781122
KBFD 010153Z AUTO 24003KT 10SM BKN019 BKN034 M08/M12 A3012 RMK AO2 SLP235 T10781122
KBFD 010053Z AUTO 23005KT 10SM OVC018 M08/M12 A3012 RMK AO2 SLP237 T10781122
KBFD 312353Z AUTO 27005KT 10SM OVC018 M08/M12 A3013 RMK AO2 SNB2255E12 SLP241 P0000 60000 T10781122 11061 21089 53006
KBFD 312253Z AUTO 28008KT 9SM OVC020 M08/M13 A3013 RMK AO2 SLP240 T10781128
KBFD 312237Z AUTO 28009KT 10SM BKN020 M08/M13 A3012 RMK AO2 T10781133
KBFD 312153Z AUTO 28008KT 10SM CLR M07/M13 A3011 RMK AO2 SLP235 T10721133
KBFD 312053Z AUTO 28008KT 10SM CLR M07/M13 A3011 RMK AO2 SLP233 T10671133 56010
KBFD 311953Z AUTO 26008KT 10SM CLR M07/M14 A3012 RMK AO2 SLP236 T10721139
KBFD 311853Z AUTO 27004KT 10SM FEW026 M07/M14 A3012 RMK AO2 SLP238 T10721144
KBFD 311753Z AUTO 30012G16KT 8SM FEW021 M09/M15 A3014 RMK AO2 SLP249 60000 T10891150 11089 21139 58017
KBFD 311744Z AUTO 29010KT 10SM SCT021 M09/M15 A3015 RMK AO2 T10891150
KBFD 311731Z AUTO 28010KT 10SM BKN022 M09/M15 A3016 RMK AO2 T10891150
KBFD 311700Z AUTO 28005KT 10SM SCT020 BKN033 M09/M15 A3017 RMK AO2 T10941150
KBFD 311653Z AUTO 29006KT 10SM BKN020 BKN035 M09/M15 A3017 RMK AO2 UPB29E37 SLP259 P0000 T10941150
KBFD 311553Z AUTO 29009KT 10SM OVC018 M11/M16 A3020 RMK AO2 SLP271 T11111161
KBFD 311453Z AUTO 29009KT 6SM HZ OVC020 M12/M16 A3019 RMK AO2 SNE46 SLP271 P0000 60000 T11221161 53006
KBFD 311353Z AUTO 29006KT 3SM -SN OVC018 M13/M16 A3019 RMK AO2 SNB04 SLP268 P0000 T11281161
KBFD 311253Z AUTO 29005KT 6SM HZ OVC015 M13/M16 A3018 RMK AO2 SNE52 SLP266 P0000 T11331161
KBFD 311212Z AUTO 28007KT 7SM -SN OVC015 M14/M17 A3018 RMK AO2 P0000 T11391167
KBFD 311153Z AUTO 28006KT 6SM -SN OVC014 M14/M17 A3017 RMK AO2 SNB26 SLP264 P0000 60000 T11391167 11139 21156 55001
KBFD 311132Z AUTO 29006KT 7SM -SN OVC014 M14/M17 A3017 RMK AO2 SNB26 P0000 T11391167
KBFD 311053Z AUTO 29006KT 9SM OVC015 M14/M17 A3016 RMK AO2 SLP259 T11391172
KBFD 311007Z AUTO 31006KT 9SM OVC015 M14/M17 A3016 RMK AO2 T11391172
KBFD 310953Z AUTO 32006KT 8SM OVC014 M14/M17 A3016 RMK AO2 SNB37E48 SLP257 P0000 T11391172
KBFD 310923Z AUTO 30006KT 8SM OVC014 M14/M17 A3017 RMK AO2 T11391172
KBFD 310853Z AUTO 31009KT 7SM OVC016 M14/M18 A3018 RMK AO2 UPE32 SLP262 P0000 60000 T11391178 58001
KBFD 310753Z AUTO 31013G21KT 5SM UP OVC016 M14/M18 A3019 RMK AO2 SLP265 P0000 T11441183
KBFD 310719Z AUTO 31016G21KT 5SM UP OVC016 M14/M18 A3019 RMK AO2 P0000 T11441183
KBFD 310653Z AUTO 31016KT 4SM UP OVC014 M15/M18 A3019 RMK AO2 SLP266 P0000 T11501183
KBFD 310642Z AUTO 31014KT 3SM UP OVC013 M15/M18 A3019 RMK AO2 P0000 T11501183
KBFD 310630Z AUTO 31014G25KT 2 1/2SM UP OVC013 M15/M18 A3019 RMK AO2 P0000 T11501183
KBFD 310614Z AUTO 32017KT 3SM UP OVC013 M15/M18 A3019 RMK AO2 P0000 T11501183
KBFD 310553Z AUTO 32017G25KT 2SM UP OVC013 M16/M19 A3018 RMK AO2 UPB18 SLP262 P0000 60000 T11561189 11144 21167 57004
KBFD 310453Z AUTO 32014KT 6SM BLSN BKN014 M17/M20 A3019 RMK AO2 UPB27E46 SLP267 P0000 T11671200 410331167